createdAt,value
2017-10-20T00:00:22.310Z,114.73
2017-10-20T00:02:49.122Z,106.47
2017-10-20T00:05:16.135Z,115.20
2017-10-20T00:07:42.958Z,124.00
2017-10-20T00:10:09.759Z,102.70
2017-10-20T00:12:36.834Z,111.30
2017-10-20T00:15:03.667Z,111.50
2017-10-20T00:17:30.726Z,106.73
2017-10-20T00:19:57.883Z,110.90
2017-10-20T00:22:24.715Z,114.67
2017-10-20T00:24:52.073Z,121.40
2017-10-20T00:27:18.893Z,111.13
2017-10-20T00:29:45.701Z,115.53
2017-10-20T00:32:12.751Z,119.30
2017-10-20T00:34:40.251Z,124.60
2017-10-20T00:37:07.332Z,119.80
2017-10-20T00:39:34.362Z,117.83
2017-10-20T00:42:01.509Z,126.13
2017-10-20T00:44:28.317Z,128.30
2017-10-20T00:46:55.418Z,147.67
2017-10-20T00:49:22.230Z,129.73
2017-10-20T00:51:49.293Z,106.27
2017-10-20T00:54:16.138Z,110.63
2017-10-20T00:56:43.007Z,108.00
2017-10-20T00:59:09.905Z,117.50
2017-10-20T01:01:36.974Z,127.50
2017-10-20T01:04:03.859Z,110.20
2017-10-20T01:06:30.708Z,99.90
2017-10-20T01:08:58.291Z,107.87
2017-10-20T01:11:25.123Z,116.23
2017-10-20T01:13:52.214Z,93.30
2017-10-20T01:16:19.071Z,100.23
2017-10-20T01:18:46.211Z,96.53
2017-10-20T01:21:13.060Z,125.80
2017-10-20T01:23:39.917Z,99.23
2017-10-20T01:26:07.003Z,106.70
2017-10-20T01:28:34.194Z,92.20
2017-10-20T01:31:01.044Z,101.97
2017-10-20T01:33:27.930Z,92.90
2017-10-20T01:35:55.138Z,104.83
2017-10-20T01:38:21.979Z,105.03
2017-10-20T01:40:48.802Z,97.33
2017-10-20T01:43:15.980Z,100.23
2017-10-20T01:45:42.827Z,94.97
2017-10-20T01:48:09.699Z,95.13
2017-10-20T01:50:36.806Z,98.13
2017-10-20T01:53:03.831Z,109.50
2017-10-20T01:55:31.018Z,105.67
2017-10-20T01:57:58.154Z,104.37
2017-10-20T02:00:25.308Z,104.70
2017-10-20T02:02:52.179Z,105.00
2017-10-20T02:05:18.982Z,104.90
2017-10-20T02:07:46.675Z,102.67
2017-10-20T02:10:13.733Z,103.33
2017-10-20T02:12:40.615Z,101.93
2017-10-20T02:15:07.439Z,102.50
2017-10-20T02:17:34.537Z,131.97
2017-10-20T02:20:01.586Z,104.57
2017-10-20T02:22:28.444Z,98.60
2017-10-20T02:24:55.300Z,118.70
2017-10-20T02:27:22.147Z,126.93
2017-10-20T02:29:49.021Z,107.20
2017-10-20T02:32:16.154Z,109.23
2017-10-20T02:34:42.934Z,106.90
2017-10-20T02:37:10.009Z,107.93
2017-10-20T02:39:37.050Z,139.93
2017-10-20T02:42:03.877Z,138.60
2017-10-20T02:44:30.956Z,115.47
2017-10-20T02:46:57.807Z,112.77
2017-10-20T02:49:24.648Z,100.87
2017-10-20T02:51:51.437Z,105.73
2017-10-20T02:54:18.514Z,95.17
2017-10-20T02:56:45.335Z,96.73
2017-10-20T02:59:12.169Z,103.30
2017-10-20T03:01:39.027Z,100.97
2017-10-20T03:04:05.875Z,98.83
2017-10-20T03:06:33.050Z,104.33
2017-10-20T03:08:59.874Z,107.43
2017-10-20T03:11:26.719Z,92.33
2017-10-20T03:13:53.506Z,98.40
2017-10-20T03:16:20.620Z,94.20
2017-10-20T03:18:47.767Z,106.90
2017-10-20T03:21:14.833Z,96.83
2017-10-20T03:23:41.975Z,96.13
2017-10-20T03:26:09.119Z,94.13
2017-10-20T03:28:35.981Z,89.00
2017-10-20T03:31:03.075Z,92.43
2017-10-20T03:33:29.859Z,95.23
2017-10-20T03:35:56.776Z,107.53
2017-10-20T03:38:23.644Z,91.20
2017-10-20T03:40:50.459Z,89.70
2017-10-20T03:43:17.300Z,93.77
2017-10-20T03:45:44.122Z,95.50
2017-10-20T03:48:10.917Z,100.57
2017-10-20T03:50:37.759Z,93.00
2017-10-20T03:53:04.875Z,117.17
2017-10-20T03:55:31.968Z,85.97
2017-10-20T03:57:58.766Z,92.93
2017-10-20T04:00:25.700Z,95.87
2017-10-20T04:02:53.223Z,88.67
2017-10-20T04:05:20.362Z,90.03
2017-10-20T04:07:47.256Z,98.10
2017-10-20T04:10:14.087Z,94.73
2017-10-20T04:12:40.915Z,98.57
2017-10-20T04:15:07.782Z,92.30
2017-10-20T04:17:34.643Z,89.07
2017-10-20T04:20:01.716Z,100.07
2017-10-20T04:22:28.567Z,85.83
2017-10-20T04:24:55.384Z,87.57
2017-10-20T04:27:22.451Z,82.40
2017-10-20T04:29:49.600Z,104.50
2017-10-20T04:32:16.435Z,84.73
2017-10-20T04:34:43.256Z,88.30
2017-10-20T04:37:10.101Z,85.90
2017-10-20T04:39:36.916Z,88.20
2017-10-20T04:42:04.022Z,97.30
2017-10-20T04:44:30.863Z,91.40
2017-10-20T04:46:57.667Z,90.07
2017-10-20T04:49:24.487Z,98.70
2017-10-20T04:51:51.305Z,87.20
2017-10-20T04:54:18.139Z,90.33
2017-10-20T04:56:45.402Z,83.63
2017-10-20T04:59:12.531Z,83.57
2017-10-20T05:01:39.355Z,87.70
2017-10-20T05:04:06.142Z,87.33
2017-10-20T05:06:33.275Z,78.87
2017-10-20T05:09:00.103Z,85.77
2017-10-20T05:11:27.162Z,76.33
2017-10-20T05:13:54.090Z,83.87
2017-10-20T05:16:20.921Z,94.07
2017-10-20T05:18:47.755Z,84.00
2017-10-20T05:21:14.805Z,79.17
2017-10-20T05:23:41.886Z,86.13
2017-10-20T05:26:08.678Z,84.27
2017-10-20T05:28:35.988Z,84.20
2017-10-20T05:31:03.055Z,92.07
2017-10-20T05:33:30.184Z,92.90
2017-10-20T05:35:56.994Z,83.10
2017-10-20T05:38:23.823Z,82.07
2017-10-20T05:40:50.920Z,81.40
2017-10-20T05:43:18.067Z,82.93
2017-10-20T05:45:45.422Z,84.73
2017-10-20T05:48:12.272Z,95.73
2017-10-20T05:50:39.053Z,98.10
2017-10-20T05:53:05.847Z,88.13
2017-10-20T05:55:32.691Z,101.57
2017-10-20T05:57:59.532Z,89.87
2017-10-20T06:00:26.373Z,101.57
2017-10-20T06:02:53.400Z,84.43
2017-10-20T06:05:20.470Z,82.93
2017-10-20T06:07:47.341Z,88.27
2017-10-20T06:10:14.467Z,82.90
2017-10-20T06:12:41.948Z,79.67
2017-10-20T06:15:09.278Z,84.63
2017-10-20T06:17:40.215Z,92.77
2017-10-20T06:20:07.375Z,80.73
2017-10-20T06:22:34.189Z,80.53
2017-10-20T06:25:01.645Z,81.07
2017-10-20T06:27:28.678Z,78.13
2017-10-20T06:29:55.504Z,81.07
2017-10-20T06:32:22.623Z,79.77
2017-10-20T06:34:49.460Z,64.93
2017-10-20T06:37:16.536Z,65.20
2017-10-20T06:39:43.342Z,62.57
2017-10-20T06:42:10.137Z,71.83
2017-10-20T06:44:37.017Z,53.87
2017-10-20T06:47:03.844Z,62.43
2017-10-20T06:49:30.669Z,63.93
2017-10-20T06:51:57.525Z,59.07
2017-10-20T06:54:25.018Z,57.57
2017-10-20T06:56:52.167Z,52.33
2017-10-20T06:59:19.365Z,60.77
2017-10-20T07:01:46.268Z,52.00
2017-10-20T07:04:14.556Z,54.53
2017-10-20T07:06:45.390Z,56.00
2017-10-20T07:09:17.189Z,51.90
2017-10-20T07:11:48.239Z,53.13
2017-10-20T07:14:18.918Z,53.00
2017-10-20T07:16:49.642Z,51.50
2017-10-20T07:19:23.161Z,53.30
2017-10-20T07:21:52.582Z,56.30
2017-10-20T07:24:21.194Z,49.80
2017-10-20T07:26:51.263Z,49.23
2017-10-20T07:29:18.919Z,53.03
2017-10-20T07:31:45.756Z,56.40
2017-10-20T07:34:12.579Z,55.87
2017-10-20T07:36:39.747Z,55.53
2017-10-20T07:39:06.554Z,56.40
2017-10-20T07:41:33.366Z,55.27
2017-10-20T07:44:00.223Z,54.47
2017-10-20T07:46:27.667Z,56.17
2017-10-20T07:48:54.665Z,56.77
2017-10-20T07:51:21.497Z,54.10
2017-10-20T07:53:48.572Z,51.90
2017-10-20T07:56:15.374Z,56.43
2017-10-20T07:58:42.236Z,51.30
2017-10-20T08:01:09.042Z,54.23
2017-10-20T08:03:35.840Z,51.30
2017-10-20T08:06:02.675Z,51.87
2017-10-20T08:08:29.504Z,54.80
2017-10-20T08:10:56.570Z,51.87
2017-10-20T08:13:23.860Z,56.47
2017-10-20T08:15:50.956Z,52.80
2017-10-20T08:18:18.022Z,51.50
2017-10-20T08:20:44.829Z,51.80
2017-10-20T08:23:12.452Z,51.20
2017-10-20T08:25:39.575Z,49.83
2017-10-20T08:28:06.366Z,50.77
2017-10-20T08:30:34.291Z,48.30
2017-10-20T08:33:01.343Z,50.87
2017-10-20T08:35:28.518Z,50.73
2017-10-20T08:37:55.373Z,49.30
2017-10-20T08:40:22.179Z,49.00
2017-10-20T08:42:49.224Z,48.17
2017-10-20T08:45:16.369Z,48.43
2017-10-20T08:47:43.166Z,48.30
2017-10-20T08:50:10.366Z,47.07
2017-10-20T08:52:37.206Z,46.73
2017-10-20T08:55:04.085Z,47.60
2017-10-20T08:57:30.924Z,49.67
2017-10-20T08:59:57.779Z,47.70
2017-10-20T09:02:24.892Z,44.87
2017-10-20T09:04:52.052Z,43.63
2017-10-20T09:07:18.901Z,43.00
2017-10-20T09:09:45.813Z,46.73
2017-10-20T09:12:12.653Z,45.67
2017-10-20T09:14:39.532Z,46.03
2017-10-20T09:17:06.441Z,44.00
2017-10-20T09:19:33.285Z,40.10
2017-10-20T09:22:00.465Z,42.03
2017-10-20T09:24:27.331Z,42.73
2017-10-20T09:26:54.177Z,42.23
2017-10-20T09:29:21.032Z,45.70
2017-10-20T09:31:47.904Z,40.60
2017-10-20T09:34:14.749Z,42.70
2017-10-20T09:36:41.932Z,43.70
2017-10-20T09:39:09.085Z,40.70
2017-10-20T09:41:35.944Z,44.33
2017-10-20T09:44:02.816Z,44.17
2017-10-20T09:46:29.724Z,43.27
2017-10-20T09:48:56.631Z,43.73
2017-10-20T09:51:23.492Z,41.87
2017-10-20T09:53:50.656Z,43.53
2017-10-20T09:56:17.880Z,42.40
2017-10-20T09:58:44.733Z,40.73
2017-10-20T10:01:11.902Z,40.33
2017-10-20T10:03:38.761Z,41.97
2017-10-20T10:06:05.705Z,41.50
2017-10-20T10:08:32.607Z,40.30
2017-10-20T10:10:59.455Z,41.67
2017-10-20T10:13:26.321Z,41.80
2017-10-20T10:15:53.173Z,39.77
2017-10-20T10:18:20.004Z,42.50
2017-10-20T10:20:46.839Z,38.70
2017-10-20T10:23:13.708Z,41.50
2017-10-20T10:25:40.813Z,40.70
2017-10-20T10:28:07.649Z,39.63
2017-10-20T10:30:34.515Z,37.33
2017-10-20T10:33:01.327Z,38.83
2017-10-20T10:35:28.419Z,37.63
2017-10-20T10:37:55.586Z,37.40
2017-10-20T10:40:22.620Z,38.50
2017-10-20T10:42:49.505Z,39.30
2017-10-20T10:45:16.617Z,39.27
2017-10-20T10:47:43.462Z,37.47
2017-10-20T10:50:10.604Z,38.67
2017-10-20T10:52:37.469Z,38.13
2017-10-20T10:55:05.166Z,39.00
2017-10-20T10:57:31.987Z,37.50
2017-10-20T10:59:58.845Z,37.77
2017-10-20T11:02:26.304Z,41.27
2017-10-20T11:04:53.244Z,37.03
2017-10-20T11:07:26.074Z,39.00
2017-10-20T11:09:59.073Z,37.60
2017-10-20T11:12:32.097Z,36.27
2017-10-20T11:14:59.008Z,34.83
2017-10-20T11:17:25.844Z,37.17
2017-10-20T11:19:52.703Z,34.93
2017-10-20T11:22:19.790Z,42.83
2017-10-20T11:24:47.157Z,37.00
2017-10-20T11:27:14.473Z,37.53
2017-10-20T11:29:41.288Z,39.50
2017-10-20T11:32:08.474Z,38.23
2017-10-20T11:34:35.596Z,36.37
2017-10-20T11:37:02.742Z,34.10
2017-10-20T11:39:29.556Z,33.80
2017-10-20T11:41:56.433Z,33.97
2017-10-20T11:44:23.263Z,30.47
2017-10-20T11:46:50.100Z,30.23
2017-10-20T11:49:17.269Z,31.30
2017-10-20T11:51:45.210Z,30.87
2017-10-20T11:54:15.256Z,31.80
2017-10-20T11:56:43.999Z,31.43
2017-10-20T11:59:11.157Z,33.27
2017-10-20T12:01:38.349Z,34.67
2017-10-20T12:04:05.520Z,32.70
2017-10-20T12:06:32.531Z,32.80
2017-10-20T12:09:00.091Z,32.47
2017-10-20T12:11:27.496Z,34.40
2017-10-20T12:13:55.211Z,35.00
2017-10-20T12:16:23.841Z,31.83
2017-10-20T12:18:52.937Z,32.30
2017-10-20T12:21:20.673Z,31.57
2017-10-20T12:23:50.142Z,32.97
2017-10-20T12:26:17.773Z,34.23
2017-10-20T12:28:44.801Z,33.60
2017-10-20T12:31:20.015Z,32.33
2017-10-20T12:33:47.094Z,30.53
2017-10-20T12:36:13.948Z,29.67
2017-10-20T12:38:41.181Z,31.13
2017-10-20T12:41:08.048Z,29.50
2017-10-20T12:43:35.152Z,29.30
2017-10-20T12:46:02.165Z,33.00
2017-10-20T12:48:29.347Z,30.90
2017-10-20T12:50:56.500Z,30.63
2017-10-20T12:53:23.341Z,31.87
2017-10-20T12:55:50.262Z,29.17
2017-10-20T12:58:17.138Z,33.00
2017-10-20T13:00:43.975Z,37.97
2017-10-20T13:03:10.843Z,41.57
2017-10-20T13:05:37.703Z,36.00
2017-10-20T13:08:04.548Z,34.33
2017-10-20T13:10:32.259Z,35.60
2017-10-20T13:12:59.100Z,33.50
2017-10-20T13:15:26.008Z,34.13
2017-10-20T13:17:52.801Z,35.37
2017-10-20T13:20:19.647Z,35.43
2017-10-20T13:22:46.785Z,32.20
2017-10-20T13:25:13.832Z,36.60
2017-10-20T13:27:40.879Z,35.20
2017-10-20T13:30:07.735Z,36.33
2017-10-20T13:32:34.545Z,31.33
2017-10-20T13:35:01.358Z,33.37
2017-10-20T13:37:28.176Z,32.90
2017-10-20T13:39:54.991Z,38.17
2017-10-20T13:42:21.815Z,35.93
2017-10-20T13:44:50.735Z,36.03
2017-10-20T13:47:17.600Z,39.53
2017-10-20T13:49:44.438Z,36.57
2017-10-20T13:52:11.346Z,40.93
2017-10-20T13:54:38.236Z,34.80
2017-10-20T13:57:05.360Z,36.23
2017-10-20T13:59:32.229Z,35.07
2017-10-20T14:01:59.043Z,36.37
2017-10-20T14:04:25.877Z,33.60
2017-10-20T14:06:52.757Z,36.67
2017-10-20T14:09:19.622Z,36.00
2017-10-20T14:11:46.511Z,34.03
2017-10-20T14:14:13.347Z,35.67
2017-10-20T14:16:40.190Z,35.00
2017-10-20T14:19:07.123Z,36.67
2017-10-20T14:21:34.096Z,34.10
2017-10-20T14:24:01.257Z,35.23
2017-10-20T14:26:28.084Z,36.97
2017-10-20T14:28:55.247Z,37.00
2017-10-20T14:31:22.113Z,38.20
2017-10-20T14:33:49.246Z,39.73
2017-10-20T14:36:16.132Z,38.70
2017-10-20T14:38:42.984Z,37.00
2017-10-20T14:41:10.074Z,40.70
2017-10-20T14:43:36.916Z,38.00
2017-10-20T14:46:03.821Z,41.20
2017-10-20T14:48:30.671Z,40.73
2017-10-20T14:50:57.518Z,39.17
2017-10-20T14:53:24.365Z,40.33
2017-10-20T14:55:51.209Z,38.90
2017-10-20T14:58:18.271Z,37.03
2017-10-20T15:00:45.111Z,43.47
2017-10-20T15:03:11.973Z,38.90
2017-10-20T15:05:39.088Z,39.00
2017-10-20T15:08:06.007Z,36.50
2017-10-20T15:10:32.841Z,36.83
2017-10-20T15:12:59.679Z,34.83
2017-10-20T15:15:26.537Z,35.63
2017-10-20T15:17:53.409Z,35.37
2017-10-20T15:20:20.271Z,39.37
2017-10-20T15:22:47.136Z,38.40
2017-10-20T15:25:14.001Z,45.17
2017-10-20T15:27:41.111Z,38.27
2017-10-20T15:30:07.961Z,35.30
2017-10-20T15:32:34.785Z,34.90
2017-10-20T15:35:01.665Z,37.60
2017-10-20T15:37:28.796Z,37.60
2017-10-20T15:39:55.621Z,39.57
2017-10-20T15:42:22.485Z,38.67
2017-10-20T15:44:49.349Z,37.20
2017-10-20T15:47:16.209Z,39.40
2017-10-20T15:49:43.058Z,43.10
2017-10-20T15:52:09.910Z,38.97
2017-10-20T15:54:37.007Z,41.63
2017-10-20T15:57:03.875Z,40.43
2017-10-20T15:59:30.737Z,35.17
2017-10-20T16:01:57.550Z,42.73
2017-10-20T16:04:24.402Z,43.57
2017-10-20T16:06:51.487Z,39.23
2017-10-20T16:09:18.684Z,49.33
2017-10-20T16:11:45.825Z,46.20
2017-10-20T16:14:12.982Z,38.40
2017-10-20T16:16:39.852Z,36.20
2017-10-20T16:19:06.699Z,38.53
2017-10-20T16:21:33.568Z,45.70
2017-10-20T16:24:00.391Z,39.70
2017-10-20T16:26:27.262Z,43.73
2017-10-20T16:28:54.121Z,36.57
2017-10-20T16:31:20.973Z,45.73
2017-10-20T16:33:47.806Z,47.47
2017-10-20T16:36:14.677Z,49.43
2017-10-20T16:38:41.821Z,53.23
2017-10-20T16:41:08.864Z,42.70
2017-10-20T16:43:35.680Z,46.50
2017-10-20T16:46:02.545Z,45.10
2017-10-20T16:48:29.403Z,41.60
2017-10-20T16:50:56.215Z,44.23
2017-10-20T16:53:23.408Z,47.33
2017-10-20T16:55:50.625Z,44.13
2017-10-20T16:58:17.687Z,41.93
2017-10-20T17:00:44.532Z,52.33
2017-10-20T17:03:11.679Z,41.57
2017-10-20T17:05:38.539Z,43.77
2017-10-20T17:08:05.364Z,39.53
2017-10-20T17:10:32.203Z,60.83
2017-10-20T17:12:59.015Z,45.13
2017-10-20T17:15:26.209Z,38.17
2017-10-20T17:17:53.044Z,53.83
2017-10-20T17:20:19.901Z,38.30
2017-10-20T17:22:46.777Z,43.50
2017-10-20T17:25:13.612Z,42.50
2017-10-20T17:27:40.733Z,41.00
2017-10-20T17:30:07.598Z,37.57
2017-10-20T17:32:34.463Z,36.00
2017-10-20T17:35:01.276Z,36.97
2017-10-20T17:37:28.357Z,34.57
2017-10-20T17:39:55.225Z,35.33
2017-10-20T17:42:22.076Z,32.40
2017-10-20T17:44:48.940Z,36.43
2017-10-20T17:47:16.183Z,21.03
2017-10-20T17:49:43.338Z,24.03
2017-10-20T17:52:10.183Z,24.90
2017-10-20T17:54:37.048Z,24.33
2017-10-20T17:57:03.896Z,23.37
2017-10-20T17:59:30.973Z,19.17
2017-10-20T18:01:57.812Z,17.77
2017-10-20T18:04:24.704Z,17.47
2017-10-20T18:06:51.561Z,15.93
2017-10-20T18:09:18.657Z,15.53
2017-10-20T18:11:45.497Z,14.40
2017-10-20T18:14:12.312Z,16.33
2017-10-20T18:16:39.162Z,13.40
2017-10-20T18:19:05.976Z,16.10
2017-10-20T18:21:32.841Z,18.90
2017-10-20T18:23:59.675Z,20.27
2017-10-20T18:26:26.804Z,18.60
2017-10-20T18:28:53.952Z,20.57
2017-10-20T18:31:20.822Z,19.53
2017-10-20T18:33:47.677Z,20.60
2017-10-20T18:36:14.797Z,17.80
2017-10-20T18:38:41.644Z,19.27
2017-10-20T18:41:08.463Z,19.20
2017-10-20T18:43:35.284Z,19.00
2017-10-20T18:46:02.154Z,18.07
2017-10-20T18:48:28.968Z,20.53
2017-10-20T18:50:55.841Z,19.10
2017-10-20T18:53:22.940Z,20.00
2017-10-20T18:55:49.801Z,18.80
2017-10-20T18:58:16.887Z,19.87
2017-10-20T19:00:43.755Z,21.90
2017-10-20T19:03:10.889Z,24.80
2017-10-20T19:05:37.703Z,21.03
2017-10-20T19:08:04.588Z,20.00
2017-10-20T19:10:31.724Z,18.20
2017-10-20T19:12:58.871Z,17.93
2017-10-20T19:15:25.756Z,19.37
2017-10-20T19:17:52.621Z,19.60
2017-10-20T19:20:19.464Z,20.03
2017-10-20T19:22:46.311Z,21.53
2017-10-20T19:25:13.165Z,20.70
2017-10-20T19:27:39.976Z,18.80
2017-10-20T19:30:07.087Z,20.40
2017-10-20T19:32:34.236Z,19.10
2017-10-20T19:35:01.064Z,20.00
2017-10-20T19:37:27.925Z,20.10
2017-10-20T19:39:54.784Z,20.47
2017-10-20T19:42:21.884Z,19.00
2017-10-20T19:44:49.063Z,19.50
2017-10-20T19:47:15.910Z,23.17
2017-10-20T19:49:43.056Z,21.40
2017-10-20T19:52:09.925Z,21.80
2017-10-20T19:54:37.053Z,21.77
2017-10-20T19:57:04.200Z,23.13
2017-10-20T19:59:31.040Z,22.00
2017-10-20T20:01:57.913Z,20.40
2017-10-20T20:04:24.992Z,22.57
2017-10-20T20:06:51.854Z,21.53
2017-10-20T20:09:18.667Z,22.57
2017-10-20T20:11:45.767Z,24.97
2017-10-20T20:14:12.623Z,23.93
2017-10-20T20:16:39.451Z,22.67
2017-10-20T20:19:06.309Z,22.00
2017-10-20T20:21:33.177Z,23.63
2017-10-20T20:24:00.289Z,23.00
2017-10-20T20:26:27.132Z,23.47
2017-10-20T20:28:53.968Z,23.70
2017-10-20T20:31:20.791Z,25.50
2017-10-20T20:33:47.637Z,25.63
2017-10-20T20:36:14.505Z,26.57
2017-10-20T20:38:41.321Z,27.10
2017-10-20T20:41:08.506Z,29.70
2017-10-20T20:43:35.384Z,29.00
2017-10-20T20:46:02.204Z,25.67
2017-10-20T20:48:29.031Z,25.50
2017-10-20T20:50:56.115Z,25.90
2017-10-20T20:53:23.232Z,24.20
2017-10-20T20:55:50.055Z,23.70
2017-10-20T20:58:17.228Z,26.50
2017-10-20T21:00:44.095Z,24.87
2017-10-20T21:03:10.943Z,25.93
2017-10-20T21:05:38.048Z,26.07
2017-10-20T21:08:05.103Z,24.40
2017-10-20T21:10:31.971Z,24.53
2017-10-20T21:12:58.839Z,24.70
2017-10-20T21:15:25.695Z,22.40
2017-10-20T21:17:52.519Z,21.33
2017-10-20T21:20:19.389Z,21.83
2017-10-20T21:22:46.253Z,21.90
2017-10-20T21:25:13.091Z,21.03
2017-10-20T21:27:40.260Z,19.30
2017-10-20T21:30:07.117Z,20.73
2017-10-20T21:32:34.252Z,22.73
2017-10-20T21:35:01.258Z,22.50
2017-10-20T21:37:28.424Z,23.23
2017-10-20T21:39:55.755Z,23.13
2017-10-20T21:42:25.210Z,24.40
2017-10-20T21:44:52.880Z,21.90
2017-10-20T21:47:20.205Z,20.87
2017-10-20T21:49:51.632Z,23.17
2017-10-20T21:52:19.220Z,20.23
2017-10-20T21:54:49.557Z,21.00
2017-10-20T21:57:20.991Z,19.57
2017-10-20T21:59:50.568Z,19.03
2017-10-20T22:02:20.592Z,21.97
2017-10-20T22:04:48.944Z,19.17
2017-10-20T22:07:17.817Z,19.30
2017-10-20T22:09:46.898Z,21.70
2017-10-20T22:12:17.717Z,24.03
2017-10-20T22:14:47.197Z,21.40
2017-10-20T22:17:16.798Z,19.27
2017-10-20T22:19:45.209Z,19.30
2017-10-20T22:22:13.833Z,19.50
2017-10-20T22:24:41.642Z,19.93
2017-10-20T22:27:09.039Z,18.47
2017-10-20T22:29:35.863Z,16.77
2017-10-20T22:32:05.200Z,15.63
2017-10-20T22:34:33.592Z,15.20
2017-10-20T22:37:01.850Z,16.60
2017-10-20T22:39:31.204Z,16.23
2017-10-20T22:41:58.370Z,15.30
2017-10-20T22:44:25.186Z,16.10
2017-10-20T22:46:52.295Z,15.17
2017-10-20T22:49:19.127Z,16.40
2017-10-20T22:51:46.275Z,15.70
2017-10-20T22:54:13.427Z,15.60
2017-10-20T22:56:40.275Z,15.63
2017-10-20T22:59:07.425Z,16.37
2017-10-20T23:01:34.566Z,16.20
2017-10-20T23:04:01.671Z,15.70
2017-10-20T23:06:28.768Z,15.93
2017-10-20T23:08:55.603Z,18.90
2017-10-20T23:11:22.455Z,16.87
2017-10-20T23:13:49.348Z,16.00
2017-10-20T23:16:16.183Z,16.60
2017-10-20T23:18:43.100Z,15.67
2017-10-20T23:21:09.948Z,16.00
2017-10-20T23:23:36.800Z,15.97
2017-10-20T23:26:03.933Z,16.70
2017-10-20T23:28:31.078Z,17.17
2017-10-20T23:30:58.228Z,19.27
2017-10-20T23:33:25.096Z,17.83
2017-10-20T23:35:52.220Z,18.10
2017-10-20T23:38:19.039Z,16.87
2017-10-20T23:40:45.938Z,16.20
2017-10-20T23:43:12.792Z,15.30
2017-10-20T23:45:39.900Z,13.43
2017-10-20T23:48:06.822Z,13.90
2017-10-20T23:50:33.664Z,14.70
2017-10-20T23:53:00.483Z,14.37
2017-10-20T23:55:27.354Z,14.03
2017-10-20T23:57:54.544Z,13.93
